• Join FlightAware (Why Join?)
  • Login
  • US Flag 
08:34PM EST


 

Airport Tracker/Info


-or-


 

Live Flight TrackerFlight Track Log ✈ SWA1521 ✈ 13-Dec-2013 ✈ KOAK - KSEA

Flight Track Log - Related Links

Times and Time Zones

All times are in EST time to prevent confusion due to time zone crossing. See the SWA1521 flight status page for this flight to view local times or setup timezone preferences in your user account.

Time Position Orientation Groundspeed Altitude Reporting Facility
EST Latitude Longitude Course Direction KTS MPH feet Rate Location/Type
11:12PM 37.7239 -122.2483 North 172 198 1,000  Level Oakland Center
11:13PM 37.7594 -122.2961 313° West 192 221 2,700 2,400 Climbing Oakland Center
11:14PM 37.8406 -122.3028 356° North 247 284 6,000 3,360 Climbing Oakland Center
11:15PM 37.9139 -122.3019 North 261 300 9,600 3,420 Climbing Oakland Center
11:16PM 37.9900 -122.2997 North 272 313 13,000 2,580 Climbing Oakland Center
11:17PM 38.0728 -122.2975 North 294 338 14,900 1,980 Climbing Oakland Center
11:18PM 38.2287 -122.2248 North  Level Estimated
11:18PM 38.1722 -122.2936 North 351 404 17,100  Level Oakland Center
11:19PM 38.2756 -122.2911 North 368 423 19,400 2,220 Climbing Oakland Center
11:20PM 38.3822 -122.2867 North 382 440 21,700 2,100 Climbing Oakland Center
11:21PM 38.4928 -122.2839 North 396 456 23,700 1,860 Climbing Oakland Center
11:22PM 38.6061 -122.2806 North 406 467 25,600 1,920 Climbing Oakland Center
11:23PM 38.7428 -122.2772 North 416 479 27,700 1,860 Climbing Oakland Center
11:24PM 38.8611 -122.2736 North 423 487 29,500 1,860 Climbing Oakland Center
11:26PM 38.9761 -122.2694 North 414 476 31,600 1,980 Climbing Oakland Center
11:27PM 39.0881 -122.2664 North 404 465 33,600 1,860 Climbing Oakland Center
11:28PM 39.1961 -122.2636 North 392 451 35,400 1,140 Climbing Oakland Center
11:29PM 39.3008 -122.2603 North 380 437 36,000 240 Climbing Oakland Center
11:30PM 39.4072 -122.2569 North 380 437 36,000  Level Oakland Center
11:31PM 39.5286 -122.2528 North 383 441 36,000  Level Oakland Center
11:32PM 39.6344 -122.2497 North 381 438 36,000  Level Oakland Center
11:33PM 39.7417 -122.2469 North 384 442 36,000  Level Oakland Center
11:34PM 39.8489 -122.2431 North 386 444 36,000  Level Oakland Center
11:35PM 39.9542 -122.2400 North 381 438 36,000  Level Oakland Center
11:36PM 40.0592 -122.2361 North 381 438 36,000  Level Oakland Center
11:37PM 40.1639 -122.2317 North 403 464 36,000  Level Oakland Center
11:38PM 40.2853 -122.2469 355° North 383 441 36,000  Level Oakland Center
11:39PM 40.3903 -122.2533 357° North 382 440 36,000  Level Oakland Center
11:40PM 40.4953 -122.2600 357° North 379 436 36,000  Level Oakland Center
11:41PM 40.6017 -122.2642 358° North 386 444 36,000  Level Oakland Center
11:42PM 40.7058 -122.2708 357° North 377 434 36,000  Level Oakland Center
11:43PM 40.8114 -122.2769 357° North 380 437 36,000  Level Oakland Center
11:44PM 40.9178 -122.2850 357° North 382 440 36,000  Level Oakland Center
11:45PM 41.0225 -122.2917 357° North 379 436 36,000  Level Oakland Center
11:46PM 41.1272 -122.2967 358° North 378 435 36,000  Level Oakland Center
11:47PM 41.2336 -122.3036 357° North 381 438 36,000  Level Oakland Center
11:48PM 41.3386 -122.3092 358° North 379 436 36,000  Level Oakland Center
11:48PM 41.4108 -122.3139 357° North 378 435 36,000  Level Seattle Center
11:49PM 41.5167 -122.3214 357° North 379 436 36,000  Level Seattle Center
11:50PM 41.6222 -122.3258 358° North 378 435 36,000  Level Seattle Center
11:51PM 41.7281 -122.3331 357° North 379 436 36,000  Level Seattle Center
11:52PM 41.8411 -122.3389 358° North 380 437 36,000  Level Seattle Center
11:53PM 41.9394 -122.3444 358° North 378 435 36,000  Level Seattle Center
11:55PM 42.0453 -122.3514 357° North 378 435 36,000  Level Seattle Center
11:56PM 42.1506 -122.3581 357° North 377 434 36,000  Level Seattle Center
11:57PM 42.2561 -122.3636 358° North 377 434 36,000  Level Seattle Center
11:58PM 42.3608 -122.3692 358° North 376 433 36,000  Level Seattle Center
11:59PM 42.4656 -122.3764 357° North 375 432 36,000  Level Seattle Center
12:00AM 42.5697 -122.3833 357° North 374 430 36,000  Level Seattle Center
12:01AM 42.6750 -122.3892 358° North 378 435 36,000  Level Seattle Center
12:02AM 42.7872 -122.3953 358° North 376 433 36,000  Level Seattle Center
12:03AM 42.8917 -122.4028 357° North 377 434 36,000  Level Seattle Center
12:04AM 42.9961 -122.4097 357° North 375 432 36,000  Level Seattle Center
12:05AM 43.1003 -122.4156 358° North 375 432 36,000  Level Seattle Center
12:06AM 43.2050 -122.4236 357° North 378 435 36,000  Level Seattle Center
12:07AM 43.3097 -122.4289 358° North 379 436 36,000  Level Seattle Center
12:08AM 43.4144 -122.4361 357° North 378 435 36,000  Level Seattle Center
12:09AM 43.5192 -122.4433 357° North 377 434 36,000  Level Seattle Center
12:10AM 43.6253 -122.4511 357° North 383 441 36,000  Level Seattle Center
12:11AM 43.7297 -122.4550 358° North 377 434 36,000  Level Seattle Center
12:12AM 43.8372 -122.4636 357° North 386 444 36,000  Level Seattle Center
12:13AM 43.9433 -122.4700 358° North 384 442 36,000  Level Seattle Center
12:14AM 44.0475 -122.4756 358° North 379 436 36,000  Level Seattle Center
12:15AM 44.1531 -122.4839 357° North 381 438 36,000  Level Seattle Center
12:16AM 44.2586 -122.4903 358° North 382 440 36,000  Level Seattle Center
12:17AM 44.3831 -122.4994 357° North 377 434 36,000  Level Seattle Center
12:18AM 44.4883 -122.5061 357° North 379 436 36,000  Level Seattle Center
12:19AM 44.5931 -122.5131 357° North 378 435 36,000  Level Seattle Center
12:20AM 44.6969 -122.5206 357° North 376 433 36,000  Level Seattle Center
12:21AM 44.8019 -122.5278 357° North 379 436 36,000  Level Seattle Center
12:22AM 44.9000 -122.5350 357° North 375 432 36,000  Level Seattle Center
12:23AM 45.0031 -122.5411 358° North 373 429 36,000  Level Seattle Center
12:24AM 45.1092 -122.5489 357° North 382 440 36,000  Level Seattle Center
12:25AM 45.2136 -122.5553 358° North 379 436 36,000  Level Seattle Center
12:26AM 45.3183 -122.5622 357° North 378 435 36,000  Level Seattle Center
12:27AM 45.4231 -122.5683 358° North 379 436 36,000  Level Seattle Center
12:28AM 45.5264 -122.5761 357° North 377 434 36,000  Level Seattle Center
12:29AM 45.6311 -122.5844 357° North 376 433 36,000  Level Seattle Center
12:30AM 45.7356 -122.5911 357° North 377 434 36,000  Level Seattle Center
12:31AM 45.8558 -122.6194 351° North 368 423 36,000 -420 Level Seattle Center
12:32AM 45.9553 -122.6433 351° North 365 420 35,200 -1,560 Descending Seattle Center
12:33AM 46.0536 -122.6667 351° North 361 415 32,900 -2,340 Descending Seattle Center
12:34AM 46.1531 -122.6747 357° North 363 418 30,500 -2,100 Descending Seattle Center
12:35AM 46.2472 -122.6625 North 359 413 28,700 -1,860 Descending Seattle Center
12:36AM 46.3461 -122.6461 North 358 412 26,800 -1,980 Descending Seattle Center
12:37AM 46.4453 -122.6333 North 360 414 24,800 -1,920 Descending Seattle Center
12:38AM 46.5431 -122.6189 North 355 409 22,900 -1,920 Descending Seattle Center
12:39AM 46.6381 -122.6056 North 345 397 21,000 -2,040 Descending Seattle Center
12:40AM 46.7592 -122.5875 North 338 389 18,500 -1,800 Descending Seattle Center
12:41AM 46.8447 -122.5744 North 349 402 17,400 -1,200 Descending Seattle Center
12:41AM 46.8453 -122.5767 290° West 340 391 17,400 -2,400 Level Seattle Center
12:42AM 46.9403 -122.5592 North 347 399 15,000 -2,400 Descending Seattle Center
12:42AM 46.9411 -122.5606 311° West 345 397 15,000 -1,620 Level Seattle Center
12:43AM 47.0358 -122.5189 17° North 355 409 13,400 -1,680 Descending Seattle Center
12:43AM 47.0428 -122.5153 20° North 352 405 13,300 -1,740 Descending Seattle Center
12:44AM 47.1233 -122.4903 12° North 323 372 11,700 -1,800 Descending Seattle Center
12:44AM 47.1297 -122.4906 358° North 320 368 11,500 -1,140 Descending Seattle Center
12:45AM 47.2089 -122.4753 North 311 358 10,600 -1,140 Descending Seattle Center
12:45AM 47.2153 -122.4767 352° North 300 345 10,400 -1,260 Descending Seattle Center
12:46AM 47.2861 -122.4675 North 274 315 9,400 -1,080 Descending Seattle Center
12:46AM 47.2850 -122.4661 140° Southeast 277 319 9,400 -1,020 Level Seattle Center
12:47AM 47.3567 -122.4542 North 259 298 8,400 -1,080 Descending Seattle Center
12:47AM 47.3608 -122.4558 345° North 247 284 8,300 -1,200 Descending Seattle Center
12:48AM 47.4217 -122.4539 North 236 272 7,200 -1,320 Descending Seattle Center
12:48AM 47.4275 -122.4556 349° North 228 262 7,000 -1,140 Descending Seattle Center
12:49AM 47.4875 -122.4553 360° North 231 266 6,100 -960 Descending Seattle Center
12:49AM 47.4869 -122.4547 146° Southeast 233 268 6,100 -1,080 Level Seattle Center
12:50AM 47.5553 -122.4553 360° North 228 262 5,000 -1,020 Descending Seattle Center
12:50AM 47.5567 -122.4567 326° Northwest 229 264 5,000 -540 Level Seattle Center
12:51AM 47.6167 -122.4567 360° North 232 267 4,500 -660 Descending Seattle Center
12:51AM 47.6200 -122.4556 13° North 232 267 4,400 -1,200 Descending Seattle Center
12:52AM 47.6844 -122.4522 North 234 269 3,300 -1,140 Descending Seattle Center
12:52AM 47.6844 -122.4517 90° East 232 267 3,300 -120 Level Seattle Center
12:53AM 47.7150 -122.3794 58° Northeast 204 235 3,200 -120 Descending Seattle Center
12:53AM 47.7150 -122.3803 270° West 214 246 3,200  Level Seattle Center
12:54AM 47.6878 -122.3261 127° Southeast 187 215 3,200  Level Seattle Center
12:54AM 47.6853 -122.3233 143° Southeast 160 184 3,200  Level Seattle Center
12:55AM 47.6464 -122.3161 173° South 166 191 3,200 -60 Level Seattle Center
12:56AM 47.5947 -122.3175 181° South 164 189 3,100 -480 Descending Seattle Center
12:57AM 47.5542 -122.3172 180° South 167 192 2,300 -900 Descending Seattle Center
12:57AM 47.5461 -122.3181 184° South 164 189 2,200 -840 Descending Seattle Center
12:58AM 47.5106 -122.3181 180° South 155 178 1,500 -780 Descending Seattle Center
12:59AM 47.4714 -122.3183 180° South 137 158 700 -600 Descending Seattle Center
01:00AM 47.4356 -122.3189 181° South 138 159 400 -300 Descending Seattle Center
01:02AM 47.4333 -122.3000 177° South  Level FlightAware Approximate